sensor_id;sensor_type;location;lat;lon;timestamp;pressure;altitude;pressure_sealevel;temperature;humidity
78845;BME280;68195;50.854;2.860;2024-01-30T00:02:19;102390.59;;;8.90;100.00
78845;BME280;68195;50.854;2.860;2024-01-30T00:04:47;102392.19;;;8.97;100.00
78845;BME280;68195;50.854;2.860;2024-01-30T00:07:12;102351.81;;;8.72;100.00
78845;BME280;68195;50.854;2.860;2024-01-30T00:09:38;102397.41;;;8.97;100.00
78845;BME280;68195;50.854;2.860;2024-01-30T00:12:05;102359.63;;;8.72;100.00
78845;BME280;68195;50.854;2.860;2024-01-30T00:14:31;102394.72;;;9.02;100.00
78845;BME280;68195;50.854;2.860;2024-01-30T00:16:59;102410.31;;;9.05;100.00
78845;BME280;68195;50.854;2.860;2024-01-30T00:19:24;102373.28;;;8.86;100.00
78845;BME280;68195;50.854;2.860;2024-01-30T00:21:49;102369.84;;;8.84;100.00
78845;BME280;68195;50.854;2.860;2024-01-30T00:24:15;102380.09;;;8.93;100.00
78845;BME280;68195;50.854;2.860;2024-01-30T00:26:40;102377.50;;;8.93;100.00
78845;BME280;68195;50.854;2.860;2024-01-30T00:29:06;102379.09;;;9.00;100.00
78845;BME280;68195;50.854;2.860;2024-01-30T00:31:31;102379.06;;;9.03;100.00
78845;BME280;68195;50.854;2.860;2024-01-30T00:33:57;102379.19;;;8.96;100.00
78845;BME280;68195;50.854;2.860;2024-01-30T00:36:24;102373.22;;;8.89;100.00
78845;BME280;68195;50.854;2.860;2024-01-30T00:38:50;102333.63;;;8.69;100.00
78845;BME280;68195;50.854;2.860;2024-01-30T00:41:18;102387.81;;;9.01;100.00
78845;BME280;68195;50.854;2.860;2024-01-30T00:43:44;102386.22;;;8.92;100.00
78845;BME280;68195;50.854;2.860;2024-01-30T00:46:10;102401.00;;;8.90;100.00
78845;BME280;68195;50.854;2.860;2024-01-30T00:48:37;102385.41;;;8.87;100.00
78845;BME280;68195;50.854;2.860;2024-01-30T00:51:05;102388.81;;;8.92;100.00
78845;BME280;68195;50.854;2.860;2024-01-30T00:53:33;102402.78;;;8.88;100.00
78845;BME280;68195;50.854;2.860;2024-01-30T00:55:58;102400.19;;;8.87;100.00
78845;BME280;68195;50.854;2.860;2024-01-30T00:58:24;102379.44;;;8.82;100.00
78845;BME280;68195;50.854;2.860;2024-01-30T01:00:52;102401.00;;;8.90;100.00
78845;BME280;68195;50.854;2.860;2024-01-30T01:03:17;102379.53;;;8.74;100.00
78845;BME280;68195;50.854;2.860;2024-01-30T01:05:43;102389.94;;;8.74;100.00
78845;BME280;68195;50.854;2.860;2024-01-30T01:08:11;102391.59;;;8.81;100.00
78845;BME280;68195;50.854;2.860;2024-01-30T01:10:36;102359.78;;;8.62;100.00
78845;BME280;68195;50.854;2.860;2024-01-30T01:13:06;102386.31;;;8.85;100.00
78845;BME280;68195;50.854;2.860;2024-01-30T01:15:34;102387.09;;;8.91;100.00
78845;BME280;68195;50.854;2.860;2024-01-30T01:18:02;102361.16;;;8.83;100.00
78845;BME280;68195;50.854;2.860;2024-01-30T01:20:28;102367.22;;;8.86;100.00
78845;BME280;68195;50.854;2.860;2024-01-30T01:22:53;102385.28;;;8.95;100.00
78845;BME280;68195;50.854;2.860;2024-01-30T01:25:19;102333.53;;;8.75;100.00
78845;BME280;68195;50.854;2.860;2024-01-30T01:27:44;102365.31;;;8.94;100.00
78845;BME280;68195;50.854;2.860;2024-01-30T01:30:16;102317.25;;;8.62;100.00
78845;BME280;68195;50.854;2.860;2024-01-30T01:32:50;102316.34;;;8.65;100.00
78845;BME280;68195;50.854;2.860;2024-01-30T01:35:23;102324.03;;;8.71;100.00
78845;BME280;68195;50.854;2.860;2024-01-30T01:37:50;102343.72;;;8.87;100.00
78845;BME280;68195;50.854;2.860;2024-01-30T01:40:27;102350.66;;;8.88;100.00
78845;BME280;68195;50.854;2.860;2024-01-30T01:42:55;102369.75;;;8.90;100.00
78845;BME280;68195;50.854;2.860;2024-01-30T01:45:23;102362.69;;;8.95;100.00
78845;BME280;68195;50.854;2.860;2024-01-30T01:47:52;102337.72;;;8.83;100.00
78845;BME280;68195;50.854;2.860;2024-01-30T01:50:18;102360.94;;;8.97;100.00
78845;BME280;68195;50.854;2.860;2024-01-30T01:52:47;102339.53;;;8.78;100.00
78845;BME280;68195;50.854;2.860;2024-01-30T01:55:14;102338.50;;;8.87;100.00
78845;BME280;68195;50.854;2.860;2024-01-30T01:57:41;102352.44;;;8.86;100.00
78845;BME280;68195;50.854;2.860;2024-01-30T02:00:10;102318.03;;;8.66;100.00
78845;BME280;68195;50.854;2.860;2024-01-30T02:02:36;102363.63;;;8.93;100.00
78845;BME280;68195;50.854;2.860;2024-01-30T02:05:02;102373.00;;;9.03;100.00
78845;BME280;68195;50.854;2.860;2024-01-30T02:07:30;102368.72;;;8.99;100.00
78845;BME280;68195;50.854;2.860;2024-01-30T02:09:56;102358.38;;;8.94;100.00
78845;BME280;68195;50.854;2.860;2024-01-30T02:12:21;102358.34;;;8.96;100.00
78845;BME280;68195;50.854;2.860;2024-01-30T02:14:48;102359.22;;;8.96;100.00
78845;BME280;68195;50.854;2.860;2024-01-30T02:17:14;102354.78;;;9.00;100.00
78845;BME280;68195;50.854;2.860;2024-01-30T02:19:40;102369.47;;;9.07;100.00
78845;BME280;68195;50.854;2.860;2024-01-30T02:22:07;102334.97;;;8.91;100.00
78845;BME280;68195;50.854;2.860;2024-01-30T02:24:33;102328.16;;;8.84;100.00
78845;BME280;68195;50.854;2.860;2024-01-30T02:26:58;102351.34;;;8.98;100.00
78845;BME280;68195;50.854;2.860;2024-01-30T02:29:31;102308.44;;;8.69;100.00
78845;BME280;68195;50.854;2.860;2024-01-30T02:31:56;102356.56;;;8.99;100.00
78845;BME280;68195;50.854;2.860;2024-01-30T02:34:24;102331.59;;;8.88;100.00
78845;BME280;68195;50.854;2.860;2024-01-30T02:36:49;102332.44;;;8.88;100.00
78845;BME280;68195;50.854;2.860;2024-01-30T02:39:15;102339.34;;;8.89;100.00
78845;BME280;68195;50.854;2.860;2024-01-30T02:41:40;102354.69;;;9.06;100.00
78845;BME280;68195;50.854;2.860;2024-01-30T02:44:06;102320.44;;;8.79;100.00
78845;BME280;68195;50.854;2.860;2024-01-30T02:46:31;102340.19;;;8.91;100.00
78845;BME280;68195;50.854;2.860;2024-01-30T02:48:59;102359.06;;;9.06;100.00
78845;BME280;68195;50.854;2.860;2024-01-30T02:51:24;102345.38;;;8.94;100.00
78845;BME280;68195;50.854;2.860;2024-01-30T02:53:50;102323.88;;;8.81;100.00
78845;BME280;68195;50.854;2.860;2024-01-30T02:56:15;102353.09;;;8.99;100.00
78845;BME280;68195;50.854;2.860;2024-01-30T02:58:43;102349.66;;;8.95;100.00
78845;BME280;68195;50.854;2.860;2024-01-30T03:01:08;102326.50;;;8.80;100.00
78845;BME280;68195;50.854;2.860;2024-01-30T03:03:33;102347.09;;;8.94;100.00
78845;BME280;68195;50.854;2.860;2024-01-30T03:06:01;102364.31;;;9.02;100.00
78845;BME280;68195;50.854;2.860;2024-01-30T03:08:29;102352.38;;;8.89;100.00
78845;BME280;68195;50.854;2.860;2024-01-30T03:10:55;102350.69;;;8.85;100.00
78845;BME280;68195;50.854;2.860;2024-01-30T03:13:23;102358.44;;;8.90;100.00
78845;BME280;68195;50.854;2.860;2024-01-30T03:15:50;102372.19;;;8.98;100.00
78845;BME280;68195;50.854;2.860;2024-01-30T03:18:18;102354.94;;;8.92;100.00
78845;BME280;68195;50.854;2.860;2024-01-30T03:20:43;102335.97;;;8.86;100.00
78845;BME280;68195;50.854;2.860;2024-01-30T03:23:08;102354.00;;;8.96;100.00
78845;BME280;68195;50.854;2.860;2024-01-30T03:25:34;102319.63;;;8.74;100.00
78845;BME280;68195;50.854;2.860;2024-01-30T03:28:02;102322.94;;;8.84;100.00
78845;BME280;68195;50.854;2.860;2024-01-30T03:30:30;102315.88;;;8.91;100.00
78845;BME280;68195;50.854;2.860;2024-01-30T03:32:55;102328.91;;;8.92;100.00
78845;BME280;68195;50.854;2.860;2024-01-30T03:35:21;102321.00;;;8.95;100.00
78845;BME280;68195;50.854;2.860;2024-01-30T03:37:46;102311.63;;;8.85;100.00
78845;BME280;68195;50.854;2.860;2024-01-30T03:40:12;102316.75;;;8.90;100.00
78845;BME280;68195;50.854;2.860;2024-01-30T03:42:42;102323.63;;;8.94;100.00
78845;BME280;68195;50.854;2.860;2024-01-30T03:45:12;102300.44;;;8.80;100.00
78845;BME280;68195;50.854;2.860;2024-01-30T03:47:38;102302.09;;;8.84;100.00
78845;BME280;68195;50.854;2.860;2024-01-30T03:50:06;102302.97;;;8.85;100.00
78845;BME280;68195;50.854;2.860;2024-01-30T03:52:32;102311.53;;;8.91;100.00
78845;BME280;68195;50.854;2.860;2024-01-30T03:54:57;102286.50;;;8.81;100.00
78845;BME280;68195;50.854;2.860;2024-01-30T03:57:23;102254.00;;;8.55;100.00
78845;BME280;68195;50.854;2.860;2024-01-30T03:59:50;102300.28;;;8.89;100.00
78845;BME280;68195;50.854;2.860;2024-01-30T04:02:16;102301.94;;;8.93;100.00
78845;BME280;68195;50.854;2.860;2024-01-30T04:04:43;102271.03;;;8.75;100.00
78845;BME280;68195;50.854;2.860;2024-01-30T04:07:08;102287.44;;;8.78;100.00
78845;BME280;68195;50.854;2.860;2024-01-30T04:09:36;102266.75;;;8.71;100.00
78845;BME280;68195;50.854;2.860;2024-01-30T04:12:03;102283.91;;;8.81;100.00
78845;BME280;68195;50.854;2.860;2024-01-30T04:14:29;102292.53;;;8.86;100.00
78845;BME280;68195;50.854;2.860;2024-01-30T04:16:56;102304.53;;;8.93;100.00
78845;BME280;68195;50.854;2.860;2024-01-30T04:19:22;102287.31;;;8.85;100.00
78845;BME280;68195;50.854;2.860;2024-01-30T04:21:47;102298.56;;;8.88;100.00
78845;BME280;68195;50.854;2.860;2024-01-30T04:24:15;102302.84;;;8.92;100.00
78845;BME280;68195;50.854;2.860;2024-01-30T04:26:43;102308.88;;;8.94;100.00
78845;BME280;68195;50.854;2.860;2024-01-30T04:29:11;102304.56;;;8.92;100.00
78845;BME280;68195;50.854;2.860;2024-01-30T04:31:36;102301.16;;;8.88;100.00
78845;BME280;68195;50.854;2.860;2024-01-30T04:34:02;102312.38;;;8.92;100.00
78845;BME280;68195;50.854;2.860;2024-01-30T04:36:27;102305.56;;;8.85;100.00
78845;BME280;68195;50.854;2.860;2024-01-30T04:38:55;102266.88;;;8.63;100.00
78845;BME280;68195;50.854;2.860;2024-01-30T04:41:23;102331.41;;;8.97;100.00
78845;BME280;68195;50.854;2.860;2024-01-30T04:43:48;102296.09;;;8.79;100.00
78845;BME280;68195;50.854;2.860;2024-01-30T04:46:13;102315.88;;;8.91;100.00
78845;BME280;68195;50.854;2.860;2024-01-30T04:48:39;102322.84;;;8.90;100.00
78845;BME280;68195;50.854;2.860;2024-01-30T04:51:04;102319.50;;;8.83;100.00
78845;BME280;68195;50.854;2.860;2024-01-30T04:53:32;102323.88;;;8.80;100.00
78845;BME280;68195;50.854;2.860;2024-01-30T04:55:57;102311.78;;;8.76;100.00
78845;BME280;68195;50.854;2.860;2024-01-30T04:58:27;102324.72;;;8.82;100.00
78845;BME280;68195;50.854;2.860;2024-01-30T05:00:55;102289.53;;;8.58;100.00
78845;BME280;68195;50.854;2.860;2024-01-30T05:03:20;102329.91;;;8.83;100.00
78845;BME280;68195;50.854;2.860;2024-01-30T05:05:48;102337.59;;;8.90;100.00
78845;BME280;68195;50.854;2.860;2024-01-30T05:08:15;102324.88;;;8.73;100.00
78845;BME280;68195;50.854;2.860;2024-01-30T05:10:40;102336.81;;;8.86;100.00
78845;BME280;68195;50.854;2.860;2024-01-30T05:13:10;102352.44;;;8.86;100.00
78845;BME280;68195;50.854;2.860;2024-01-30T05:15:38;102353.28;;;8.87;100.00
78845;BME280;68195;50.854;2.860;2024-01-30T05:18:04;102339.44;;;8.83;100.00
78845;BME280;68195;50.854;2.860;2024-01-30T05:20:33;102308.59;;;8.60;100.00
78845;BME280;68195;50.854;2.860;2024-01-30T05:22:58;102356.72;;;8.89;100.00
78845;BME280;68195;50.854;2.860;2024-01-30T05:25:23;102347.41;;;8.77;100.00
78845;BME280;68195;50.854;2.860;2024-01-30T05:27:51;102354.16;;;8.87;100.00
78845;BME280;68195;50.854;2.860;2024-01-30T05:30:16;102319.88;;;8.60;100.00
78845;BME280;68195;50.854;2.860;2024-01-30T05:32:43;102373.19;;;8.92;100.00
78845;BME280;68195;50.854;2.860;2024-01-30T05:35:10;102358.56;;;8.83;100.00
78845;BME280;68195;50.854;2.860;2024-01-30T05:37:36;102345.59;;;8.79;100.00
78845;BME280;68195;50.854;2.860;2024-01-30T05:40:01;102373.19;;;8.92;100.00
78845;BME280;68195;50.854;2.860;2024-01-30T05:42:27;102354.25;;;8.81;100.00
78845;BME280;68195;50.854;2.860;2024-01-30T05:44:55;102363.78;;;8.83;100.00
78845;BME280;68195;50.854;2.860;2024-01-30T05:47:25;102359.41;;;8.84;100.00
78845;BME280;68195;50.854;2.860;2024-01-30T05:49:53;102337.94;;;8.70;100.00
78845;BME280;68195;50.854;2.860;2024-01-30T05:52:19;102368.09;;;8.85;100.00
78845;BME280;68195;50.854;2.860;2024-01-30T05:54:44;102343.22;;;8.67;100.00
78845;BME280;68195;50.854;2.860;2024-01-30T05:57:09;102363.88;;;8.77;100.00
78845;BME280;68195;50.854;2.860;2024-01-30T05:59:35;102367.16;;;8.87;100.00
78845;BME280;68195;50.854;2.860;2024-01-30T06:02:03;102345.84;;;8.63;100.00
78845;BME280;68195;50.854;2.860;2024-01-30T06:04:29;102346.66;;;8.69;100.00
78845;BME280;68195;50.854;2.860;2024-01-30T06:06:56;102402.63;;;8.97;100.00
78845;BME280;68195;50.854;2.860;2024-01-30T06:09:22;102357.09;;;8.67;100.00
78845;BME280;68195;50.854;2.860;2024-01-30T06:11:47;102387.16;;;8.88;100.00
78845;BME280;68195;50.854;2.860;2024-01-30T06:14:12;102382.88;;;8.84;100.00
78845;BME280;68195;50.854;2.860;2024-01-30T06:16:38;102394.13;;;8.86;100.00
78845;BME280;68195;50.854;2.860;2024-01-30T06:19:05;102388.91;;;8.88;100.00
78845;BME280;68195;50.854;2.860;2024-01-30T06:21:31;102391.50;;;8.88;100.00
78845;BME280;68195;50.854;2.860;2024-01-30T06:23:57;102413.97;;;8.95;100.00
78845;BME280;68195;50.854;2.860;2024-01-30T06:26:22;102382.88;;;8.82;100.00
78845;BME280;68195;50.854;2.860;2024-01-30T06:28:48;102406.31;;;8.86;100.00
78845;BME280;68195;50.854;2.860;2024-01-30T06:31:13;102390.69;;;8.84;100.00
78845;BME280;68195;50.854;2.860;2024-01-30T06:33:41;102407.19;;;8.83;100.00
78845;BME280;68195;50.854;2.860;2024-01-30T06:36:09;102422.72;;;8.91;100.00
78845;BME280;68195;50.854;2.860;2024-01-30T06:38:37;102406.41;;;8.78;100.00
78845;BME280;68195;50.854;2.860;2024-01-30T06:41:03;102407.34;;;8.74;100.00
78845;BME280;68195;50.854;2.860;2024-01-30T06:43:31;102418.50;;;8.80;100.00
78845;BME280;68195;50.854;2.860;2024-01-30T06:45:56;102435.81;;;8.86;100.00
78845;BME280;68195;50.854;2.860;2024-01-30T06:48:22;102409.13;;;8.70;100.00
78845;BME280;68195;50.854;2.860;2024-01-30T06:50:47;102439.34;;;8.83;100.00
78845;BME280;68195;50.854;2.860;2024-01-30T06:53:14;102431.50;;;8.83;100.00
78845;BME280;68195;50.854;2.860;2024-01-30T06:55:39;102430.69;;;8.80;100.00
78845;BME280;68195;50.854;2.860;2024-01-30T06:58:05;102432.38;;;8.84;100.00
78845;BME280;68195;50.854;2.860;2024-01-30T07:00:31;102441.81;;;8.91;100.00
78845;BME280;68195;50.854;2.860;2024-01-30T07:02:56;102437.50;;;8.87;100.00
78845;BME280;68195;50.854;2.860;2024-01-30T07:05:24;102443.63;;;8.86;100.00
78845;BME280;68195;50.854;2.860;2024-01-30T07:07:49;102444.47;;;8.88;100.00
78845;BME280;68195;50.854;2.860;2024-01-30T07:10:15;102455.69;;;8.92;100.00
78845;BME280;68195;50.854;2.860;2024-01-30T07:12:40;102467.75;;;8.99;100.00
78845;BME280;68195;50.854;2.860;2024-01-30T07:15:08;102459.13;;;8.94;100.00
78845;BME280;68195;50.854;2.860;2024-01-30T07:17:36;102453.97;;;8.91;100.00
78845;BME280;68195;50.854;2.860;2024-01-30T07:20:02;102449.63;;;8.91;100.00
78845;BME280;68195;50.854;2.860;2024-01-30T07:22:29;102440.09;;;8.89;100.00
78845;BME280;68195;50.854;2.860;2024-01-30T07:24:55;102438.34;;;8.89;100.00
78845;BME280;68195;50.854;2.860;2024-01-30T07:27:21;102439.19;;;8.91;100.00
78845;BME280;68195;50.854;2.860;2024-01-30T07:29:46;102470.22;;;9.07;100.00
78845;BME280;68195;50.854;2.860;2024-01-30T07:32:12;102424.69;;;8.75;100.00
78845;BME280;68195;50.854;2.860;2024-01-30T07:34:40;102468.50;;;9.06;100.00
78845;BME280;68195;50.854;2.860;2024-01-30T07:37:05;102438.50;;;8.81;100.00
78845;BME280;68195;50.854;2.860;2024-01-30T07:39:35;102478.88;;;9.09;100.00
78845;BME280;68195;50.854;2.860;2024-01-30T07:42:01;102475.50;;;9.03;100.00
78845;BME280;68195;50.854;2.860;2024-01-30T07:44:26;102456.59;;;8.89;100.00
78845;BME280;68195;50.854;2.860;2024-01-30T07:46:51;102476.47;;;8.96;100.00
78845;BME280;68195;50.854;2.860;2024-01-30T07:49:17;102485.94;;;9.02;100.00
78845;BME280;68195;50.854;2.860;2024-01-30T07:51:45;102484.22;;;9.01;100.00
78845;BME280;68195;50.854;2.860;2024-01-30T07:54:10;102503.13;;;9.14;100.00
78845;BME280;68195;50.854;2.860;2024-01-30T07:56:39;102496.34;;;9.02;100.00
78845;BME280;68195;50.854;2.860;2024-01-30T07:59:09;102495.50;;;9.00;100.00
78845;BME280;68195;50.854;2.860;2024-01-30T08:01:35;102518.81;;;9.09;100.00
78845;BME280;68195;50.854;2.860;2024-01-30T08:04:03;102490.44;;;8.92;100.00
78845;BME280;68195;50.854;2.860;2024-01-30T08:06:30;102508.69;;;8.92;100.00
78845;BME280;68195;50.854;2.860;2024-01-30T08:08:58;102524.94;;;9.07;100.00
78845;BME280;68195;50.854;2.860;2024-01-30T08:11:24;102532.06;;;8.95;100.00
78845;BME280;68195;50.854;2.860;2024-01-30T08:13:54;102542.44;;;9.00;100.00
78845;BME280;68195;50.854;2.860;2024-01-30T08:16:21;102513.16;;;8.82;100.00
78845;BME280;68195;50.854;2.860;2024-01-30T08:18:47;102557.16;;;9.02;100.00
78845;BME280;68195;50.854;2.860;2024-01-30T08:21:12;102548.50;;;9.00;100.00
78845;BME280;68195;50.854;2.860;2024-01-30T08:23:39;102535.59;;;8.91;100.00
78845;BME280;68195;50.854;2.860;2024-01-30T08:26:05;102561.50;;;9.02;100.00
78845;BME280;68195;50.854;2.860;2024-01-30T08:28:31;102571.91;;;9.03;100.00
78845;BME280;68195;50.854;2.860;2024-01-30T08:30:56;102562.47;;;8.96;100.00
78845;BME280;68195;50.854;2.860;2024-01-30T08:33:22;102515.03;;;8.71;100.00
78845;BME280;68195;50.854;2.860;2024-01-30T08:35:50;102551.31;;;8.85;100.00
78845;BME280;68195;50.854;2.860;2024-01-30T08:38:18;102578.13;;;8.95;100.00
78845;BME280;68195;50.854;2.860;2024-01-30T08:40:43;102574.69;;;8.91;100.00
78845;BME280;68195;50.854;2.860;2024-01-30T08:43:09;102593.75;;;8.93;100.00
78845;BME280;68195;50.854;2.860;2024-01-30T08:45:35;102567.00;;;8.83;100.00
78845;BME280;68195;50.854;2.860;2024-01-30T08:48:00;102587.75;;;8.88;100.00
78845;BME280;68195;50.854;2.860;2024-01-30T08:50:28;102592.06;;;8.89;100.00
78845;BME280;68195;50.854;2.860;2024-01-30T08:52:54;102531.81;;;8.50;100.00
78845;BME280;68195;50.854;2.860;2024-01-30T08:55:21;102594.75;;;8.83;100.00
78845;BME280;68195;50.854;2.860;2024-01-30T08:57:46;102613.78;;;8.91;100.00
78845;BME280;68195;50.854;2.860;2024-01-30T09:00:12;102601.72;;;8.82;100.00
78845;BME280;68195;50.854;2.860;2024-01-30T09:02:38;102596.44;;;8.90;100.00
78845;BME280;68195;50.854;2.860;2024-01-30T09:05:06;102584.38;;;8.80;100.00
78845;BME280;68195;50.854;2.860;2024-01-30T09:07:31;102605.22;;;8.81;100.00
78845;BME280;68195;50.854;2.860;2024-01-30T09:09:59;102591.56;;;8.61;100.00
78845;BME280;68195;50.854;2.860;2024-01-30T09:12:27;102605.34;;;8.71;100.00
78845;BME280;68195;50.854;2.860;2024-01-30T09:14:55;102614.88;;;8.73;100.00
78845;BME280;68195;50.854;2.860;2024-01-30T09:17:23;102596.78;;;8.61;100.00
78845;BME280;68195;50.854;2.860;2024-01-30T09:19:48;102597.56;;;8.68;100.00
78845;BME280;68195;50.854;2.860;2024-01-30T09:22:13;102591.56;;;8.62;100.00
78845;BME280;68195;50.854;2.860;2024-01-30T09:24:40;102614.75;;;8.81;100.00
78845;BME280;68195;50.854;2.860;2024-01-30T09:27:05;102589.84;;;8.60;100.00
78845;BME280;68195;50.854;2.860;2024-01-30T09:29:31;102625.19;;;8.81;100.00
78845;BME280;68195;50.854;2.860;2024-01-30T09:32:00;102609.69;;;8.70;100.00
78845;BME280;68195;50.854;2.860;2024-01-30T09:34:28;102619.22;;;8.71;100.00
78845;BME280;68195;50.854;2.860;2024-01-30T09:36:58;102650.38;;;8.82;100.00
78845;BME280;68195;50.854;2.860;2024-01-30T09:39:25;102648.63;;;8.81;100.00
78845;BME280;68195;50.854;2.860;2024-01-30T09:44:25;102644.25;;;8.83;100.00
78845;BME280;68195;50.854;2.860;2024-01-30T09:46:53;102597.63;;;8.61;100.00
78845;BME280;68195;50.854;2.860;2024-01-30T09:49:22;102620.03;;;8.78;100.00
78845;BME280;68195;50.854;2.860;2024-01-30T09:51:50;102643.34;;;8.89;100.00
78845;BME280;68195;50.854;2.860;2024-01-30T09:54:18;102640.78;;;8.84;100.00
78845;BME280;68195;50.854;2.860;2024-01-30T09:56:47;102651.16;;;8.87;100.00
78845;BME280;68195;50.854;2.860;2024-01-30T09:59:12;102655.44;;;8.93;100.00
78845;BME280;68195;50.854;2.860;2024-01-30T10:01:38;102639.94;;;8.82;100.00
78845;BME280;68195;50.854;2.860;2024-01-30T10:04:05;102646.84;;;8.86;100.00
78845;BME280;68195;50.854;2.860;2024-01-30T10:06:31;102650.31;;;8.87;100.00
78845;BME280;68195;50.854;2.860;2024-01-30T10:08:56;102631.34;;;8.77;100.00
78845;BME280;68195;50.854;2.860;2024-01-30T10:11:22;102658.13;;;8.88;100.00
78845;BME280;68195;50.854;2.860;2024-01-30T10:13:47;102633.94;;;8.75;100.00
78845;BME280;68195;50.854;2.860;2024-01-30T10:16:14;102654.66;;;8.85;100.00
78845;BME280;68195;50.854;2.860;2024-01-30T10:18:42;102627.06;;;8.71;100.00
78845;BME280;68195;50.854;2.860;2024-01-30T10:21:08;102656.41;;;8.84;100.00
78845;BME280;68195;50.854;2.860;2024-01-30T10:23:34;102669.34;;;8.92;100.00
78845;BME280;68195;50.854;2.860;2024-01-30T10:25:59;102665.00;;;8.92;100.00
78845;BME280;68195;50.854;2.860;2024-01-30T10:28:27;102646.91;;;8.81;100.00
78845;BME280;68195;50.854;2.860;2024-01-30T10:31:00;102679.81;;;8.89;100.00
78845;BME280;68195;50.854;2.860;2024-01-30T10:33:29;102670.34;;;8.81;100.00
78845;BME280;68195;50.854;2.860;2024-01-30T10:36:00;102682.47;;;8.84;100.00
78845;BME280;68195;50.854;2.860;2024-01-30T10:38:29;102684.19;;;8.87;100.00
78845;BME280;68195;50.854;2.860;2024-01-30T10:40:57;102701.47;;;8.94;100.00
78845;BME280;68195;50.854;2.860;2024-01-30T10:43:24;102723.16;;;8.97;100.00
78845;BME280;68195;50.854;2.860;2024-01-30T10:46:18;102690.28;;;8.84;100.00
78845;BME280;68195;50.854;2.860;2024-01-30T10:48:48;102698.84;;;8.94;100.00
78845;BME280;68195;50.854;2.860;2024-01-30T10:51:24;102717.09;;;8.95;100.00
78845;BME280;68195;50.854;2.860;2024-01-30T10:53:52;102711.03;;;8.93;100.00
78845;BME280;68195;50.854;2.860;2024-01-30T10:56:20;102710.47;;;8.67;100.00
78845;BME280;68195;50.854;2.860;2024-01-30T10:58:50;102751.88;;;8.90;100.00
78845;BME280;68195;50.854;2.860;2024-01-30T11:01:18;102744.06;;;8.90;100.00
78845;BME280;68195;50.854;2.860;2024-01-30T11:03:45;102722.34;;;8.89;100.00
78845;BME280;68195;50.854;2.860;2024-01-30T11:06:11;102733.63;;;8.93;100.00
78845;BME280;68195;50.854;2.860;2024-01-30T11:08:39;102728.47;;;8.88;100.00
78845;BME280;68195;50.854;2.860;2024-01-30T11:11:10;102736.16;;;8.97;100.00
78845;BME280;68195;50.854;2.860;2024-01-30T11:13:36;102714.72;;;8.75;100.00
78845;BME280;68195;50.854;2.860;2024-01-30T11:16:02;102712.09;;;8.77;100.00
78845;BME280;68195;50.854;2.860;2024-01-30T11:18:32;102738.03;;;8.85;100.00
78845;BME280;68195;50.854;2.860;2024-01-30T11:21:01;102747.56;;;8.89;100.00
78845;BME280;68195;50.854;2.860;2024-01-30T11:23:28;102741.56;;;8.82;100.00
78845;BME280;68195;50.854;2.860;2024-01-30T11:25:54;102761.50;;;8.86;100.00
78845;BME280;68195;50.854;2.860;2024-01-30T11:28:21;102746.81;;;8.77;100.00
78845;BME280;68195;50.854;2.860;2024-01-30T11:30:47;102746.81;;;8.76;100.00
78845;BME280;68195;50.854;2.860;2024-01-30T11:33:27;102742.50;;;8.73;100.00
78845;BME280;68195;50.854;2.860;2024-01-30T11:35:59;102752.84;;;8.81;100.00
78845;BME280;68195;50.854;2.860;2024-01-30T11:38:26;102764.94;;;8.88;100.00
78845;BME280;68195;50.854;2.860;2024-01-30T11:40:53;102748.47;;;8.83;100.00
78845;BME280;68195;50.854;2.860;2024-01-30T11:43:23;102761.47;;;8.88;100.00
78845;BME280;68195;50.854;2.860;2024-01-30T11:45:49;102769.31;;;8.86;100.00
78845;BME280;68195;50.854;2.860;2024-01-30T11:48:22;102754.53;;;8.87;100.00
78845;BME280;68195;50.854;2.860;2024-01-30T11:50:48;102711.31;;;8.69;100.00
78845;BME280;68195;50.854;2.860;2024-01-30T11:53:17;102744.94;;;8.90;100.00
78845;BME280;68195;50.854;2.860;2024-01-30T11:55:50;102729.38;;;8.84;100.00
78845;BME280;68195;50.854;2.860;2024-01-30T11:58:15;102722.41;;;8.83;100.00
78845;BME280;68195;50.854;2.860;2024-01-30T12:00:41;102704.28;;;8.75;100.00
78845;BME280;68195;50.854;2.860;2024-01-30T12:03:06;102696.59;;;8.65;100.00
78845;BME280;68195;50.854;2.860;2024-01-30T12:05:32;102716.47;;;8.73;100.00
78845;BME280;68195;50.854;2.860;2024-01-30T12:08:00;102705.22;;;8.68;100.00
78845;BME280;68195;50.854;2.860;2024-01-30T12:10:26;102768.25;;;9.02;100.00
78845;BME280;68195;50.854;2.860;2024-01-30T12:12:56;102768.34;;;8.96;100.00
78845;BME280;68195;50.854;2.860;2024-01-30T12:15:24;102698.47;;;8.49;100.00
78845;BME280;68195;50.854;2.860;2024-01-30T12:18:03;102742.53;;;8.72;100.00
78845;BME280;68195;50.854;2.860;2024-01-30T12:20:28;102764.19;;;8.77;100.00
78845;BME280;68195;50.854;2.860;2024-01-30T12:22:54;102724.50;;;8.50;100.00
78845;BME280;68195;50.854;2.860;2024-01-30T12:25:20;102654.50;;;8.13;100.00
78845;BME280;68195;50.854;2.860;2024-01-30T12:27:47;102785.78;;;8.87;100.00
78845;BME280;68195;50.854;2.860;2024-01-30T12:30:22;102711.53;;;8.46;100.00
78845;BME280;68195;50.854;2.860;2024-01-30T12:32:49;102709.03;;;8.32;100.00
78845;BME280;68195;50.854;2.860;2024-01-30T12:35:17;102796.28;;;8.80;100.00
78845;BME280;68195;50.854;2.860;2024-01-30T12:37:46;102788.47;;;8.79;100.00
78845;BME280;68195;50.854;2.860;2024-01-30T12:40:14;102713.34;;;8.33;100.00
78845;BME280;68195;50.854;2.860;2024-01-30T12:42:43;102811.91;;;8.79;100.00
78845;BME280;68195;50.854;2.860;2024-01-30T12:45:11;102712.56;;;8.20;100.00
78845;BME280;68195;50.854;2.860;2024-01-30T12:47:39;102653.84;;;7.90;100.00
78845;BME280;68195;50.854;2.860;2024-01-30T12:50:07;102799.72;;;8.81;100.00
78845;BME280;68195;50.854;2.860;2024-01-30T12:52:32;102755.66;;;8.59;100.00